TAF LFPV
METAR LFPV
LFPV 280830Z AUTO 32013KT 300V010 9999 OVC013 04/02 Q1001 NOSIG=
LFPV 280800Z AUTO 32012KT 290V350 9999 OVC013 04/02 Q1001 NOSIG=
LFPV 280730Z AUTO 32013G23KT 300V360 9999 OVC014 04/02 Q1000 BECMG 26015KT=
LFPV 280700Z AUTO 32017KT 9999 OVC012/// ///TCU 04/02 Q1000 BECMG 26015KT OVC013=
LFPV 280630Z AUTO 31015KT 290V350 9999 -DZ OVC009/// ///TCU 04/02 Q0999 BECMG OVC013=
WC LFPV
WS LFPV
WV LFPV